sensor_id;sensor_type;location;lat;lon;timestamp;pressure;altitude;pressure_sealevel;temperature;humidity
8641;BME280;4358;42.100;25.222;2022-12-18T00:02:21;100648.47;;;9.09;100.00
8641;BME280;4358;42.100;25.222;2022-12-18T00:04:48;100663.09;;;9.34;100.00
8641;BME280;4358;42.100;25.222;2022-12-18T00:07:15;100677.88;;;9.39;100.00
8641;BME280;4358;42.100;25.222;2022-12-18T00:09:42;100689.41;;;9.38;100.00
8641;BME280;4358;42.100;25.222;2022-12-18T00:12:09;100689.56;;;9.34;100.00
8641;BME280;4358;42.100;25.222;2022-12-18T00:14:35;100700.16;;;9.34;100.00
8641;BME280;4358;42.100;25.222;2022-12-18T00:17:02;100730.94;;;9.37;100.00
8641;BME280;4358;42.100;25.222;2022-12-18T00:19:31;100741.00;;;9.30;100.00
8641;BME280;4358;42.100;25.222;2022-12-18T00:21:57;100729.13;;;9.20;100.00
8641;BME280;4358;42.100;25.222;2022-12-18T00:24:24;100714.94;;;9.21;100.00
8641;BME280;4358;42.100;25.222;2022-12-18T00:26:51;100716.53;;;9.25;100.00
8641;BME280;4358;42.100;25.222;2022-12-18T00:29:18;100731.44;;;9.26;100.00
8641;BME280;4358;42.100;25.222;2022-12-18T00:31:45;100744.56;;;9.29;100.00
8641;BME280;4358;42.100;25.222;2022-12-18T00:34:12;100735.53;;;9.33;100.00
8641;BME280;4358;42.100;25.222;2022-12-18T00:36:41;100738.81;;;9.39;100.00
8641;BME280;4358;42.100;25.222;2022-12-18T00:39:09;100745.63;;;9.44;100.00
8641;BME280;4358;42.100;25.222;2022-12-18T00:41:37;100753.09;;;9.53;100.00
8641;BME280;4358;42.100;25.222;2022-12-18T00:44:21;100749.38;;;9.57;100.00
8641;BME280;4358;42.100;25.222;2022-12-18T00:46:48;100756.94;;;9.65;100.00
8641;BME280;4358;42.100;25.222;2022-12-18T00:49:15;100752.50;;;9.65;100.00
8641;BME280;4358;42.100;25.222;2022-12-18T00:51:44;100756.47;;;9.74;100.00
8641;BME280;4358;42.100;25.222;2022-12-18T00:54:11;100749.16;;;9.79;100.00
8641;BME280;4358;42.100;25.222;2022-12-18T00:56:39;100743.94;;;9.77;100.00
8641;BME280;4358;42.100;25.222;2022-12-18T00:59:06;100743.84;;;9.79;100.00
8641;BME280;4358;42.100;25.222;2022-12-18T01:01:32;100754.16;;;9.85;100.00
8641;BME280;4358;42.100;25.222;2022-12-18T01:04:00;100753.06;;;9.89;100.00
8641;BME280;4358;42.100;25.222;2022-12-18T01:06:27;100751.44;;;9.87;100.00
8641;BME280;4358;42.100;25.222;2022-12-18T01:08:56;100762.59;;;9.93;100.00
8641;BME280;4358;42.100;25.222;2022-12-18T01:11:23;100762.28;;;9.99;100.00
8641;BME280;4358;42.100;25.222;2022-12-18T01:13:51;100757.91;;;9.98;100.00
8641;BME280;4358;42.100;25.222;2022-12-18T01:16:19;100754.00;;;9.88;100.00
8641;BME280;4358;42.100;25.222;2022-12-18T01:18:46;100755.72;;;9.72;100.00
8641;BME280;4358;42.100;25.222;2022-12-18T01:21:14;100758.16;;;9.58;100.00
8641;BME280;4358;42.100;25.222;2022-12-18T01:23:44;100749.53;;;9.54;100.00
8641;BME280;4358;42.100;25.222;2022-12-18T01:26:15;100722.16;;;9.54;100.00
8641;BME280;4358;42.100;25.222;2022-12-18T01:28:42;100726.44;;;9.39;100.00
8641;BME280;4358;42.100;25.222;2022-12-18T01:31:16;100750.38;;;9.55;100.00
8641;BME280;4358;42.100;25.222;2022-12-18T01:33:43;100758.97;;;9.60;100.00
8641;BME280;4358;42.100;25.222;2022-12-18T01:36:19;100758.66;;;9.66;100.00
8641;BME280;4358;42.100;25.222;2022-12-18T01:38:47;100768.66;;;9.78;100.00
8641;BME280;4358;42.100;25.222;2022-12-18T01:41:17;100756.97;;;9.82;100.00
8641;BME280;4358;42.100;25.222;2022-12-18T01:43:49;100755.69;;;9.89;100.00
8641;BME280;4358;42.100;25.222;2022-12-18T01:46:18;100764.31;;;9.94;100.00
8641;BME280;4358;42.100;25.222;2022-12-18T01:48:48;100765.31;;;9.92;100.00
8641;BME280;4358;42.100;25.222;2022-12-18T01:51:16;100769.44;;;9.97;100.00
8641;BME280;4358;42.100;25.222;2022-12-18T01:53:44;100767.91;;;9.93;100.00
8641;BME280;4358;42.100;25.222;2022-12-18T01:56:18;100777.47;;;9.96;100.00
8641;BME280;4358;42.100;25.222;2022-12-18T01:58:52;100767.72;;;9.96;100.00
8641;BME280;4358;42.100;25.222;2022-12-18T02:01:21;100764.44;;;9.91;100.00
8641;BME280;4358;42.100;25.222;2022-12-18T02:03:49;100768.44;;;9.83;100.00
8641;BME280;4358;42.100;25.222;2022-12-18T02:06:18;100760.91;;;9.73;100.00
8641;BME280;4358;42.100;25.222;2022-12-18T02:08:53;100763.91;;;9.85;100.00
8641;BME280;4358;42.100;25.222;2022-12-18T02:11:33;100772.09;;;9.80;100.00
8641;BME280;4358;42.100;25.222;2022-12-18T02:14:11;100763.38;;;9.78;100.00
8641;BME280;4358;42.100;25.222;2022-12-18T02:16:45;100753.13;;;9.70;100.00
8641;BME280;4358;42.100;25.222;2022-12-18T02:19:42;100761.78;;;9.74;100.00
8641;BME280;4358;42.100;25.222;2022-12-18T02:22:21;100765.22;;;9.76;100.00
8641;BME280;4358;42.100;25.222;2022-12-18T02:25:00;100768.81;;;9.75;100.00
8641;BME280;4358;42.100;25.222;2022-12-18T02:27:34;100771.09;;;9.83;100.00
8641;BME280;4358;42.100;25.222;2022-12-18T02:30:04;100766.47;;;9.86;100.00
8641;BME280;4358;42.100;25.222;2022-12-18T02:32:34;100779.91;;;9.83;100.00
8641;BME280;4358;42.100;25.222;2022-12-18T02:35:04;100781.28;;;9.73;100.00
8641;BME280;4358;42.100;25.222;2022-12-18T02:37:32;100773.88;;;9.62;100.00
8641;BME280;4358;42.100;25.222;2022-12-18T02:40:03;100775.03;;;9.57;100.00
8641;BME280;4358;42.100;25.222;2022-12-18T02:42:33;100782.19;;;9.55;100.00
8641;BME280;4358;42.100;25.222;2022-12-18T02:45:00;100781.31;;;9.54;100.00
8641;BME280;4358;42.100;25.222;2022-12-18T02:47:29;100785.63;;;9.57;100.00
8641;BME280;4358;42.100;25.222;2022-12-18T02:50:04;100791.94;;;9.54;100.00
8641;BME280;4358;42.100;25.222;2022-12-18T02:52:39;100793.66;;;9.55;100.00
8641;BME280;4358;42.100;25.222;2022-12-18T02:55:15;100794.88;;;9.48;100.00
8641;BME280;4358;42.100;25.222;2022-12-18T02:57:48;100790.06;;;9.56;100.00
8641;BME280;4358;42.100;25.222;2022-12-18T03:00:19;100776.59;;;9.61;100.00
8641;BME280;4358;42.100;25.222;2022-12-18T03:02:51;100785.63;;;9.74;100.00
8641;BME280;4358;42.100;25.222;2022-12-18T03:05:23;100788.28;;;9.74;100.00
8641;BME280;4358;42.100;25.222;2022-12-18T03:07:56;100795.59;;;9.69;100.00
8641;BME280;4358;42.100;25.222;2022-12-18T03:10:26;100789.88;;;9.78;100.00
8641;BME280;4358;42.100;25.222;2022-12-18T03:13:00;100800.16;;;9.84;100.00
8641;BME280;4358;42.100;25.222;2022-12-18T03:15:30;100796.28;;;9.91;100.00
8641;BME280;4358;42.100;25.222;2022-12-18T03:18:03;100803.75;;;10.00;100.00
8641;BME280;4358;42.100;25.222;2022-12-18T03:20:32;100806.34;;;10.02;100.00
8641;BME280;4358;42.100;25.222;2022-12-18T03:23:06;100809.69;;;10.05;100.00
8641;BME280;4358;42.100;25.222;2022-12-18T03:25:38;100822.75;;;10.10;100.00
8641;BME280;4358;42.100;25.222;2022-12-18T03:28:12;100821.88;;;10.09;100.00
8641;BME280;4358;42.100;25.222;2022-12-18T03:30:41;100826.94;;;10.14;100.00
8641;BME280;4358;42.100;25.222;2022-12-18T03:33:12;100825.97;;;10.16;100.00
8641;BME280;4358;42.100;25.222;2022-12-18T03:35:41;100828.38;;;10.21;100.00
8641;BME280;4358;42.100;25.222;2022-12-18T03:38:09;100831.03;;;10.21;100.00
8641;BME280;4358;42.100;25.222;2022-12-18T03:40:43;100844.22;;;10.23;100.00
8641;BME280;4358;42.100;25.222;2022-12-18T03:43:17;100846.06;;;10.20;100.00
8641;BME280;4358;42.100;25.222;2022-12-18T03:45:51;100842.38;;;10.25;100.00
8641;BME280;4358;42.100;25.222;2022-12-18T03:48:22;100842.66;;;10.18;100.00
8641;BME280;4358;42.100;25.222;2022-12-18T03:50:56;100846.06;;;10.20;100.00
8641;BME280;4358;42.100;25.222;2022-12-18T03:53:31;100844.53;;;10.16;100.00
8641;BME280;4358;42.100;25.222;2022-12-18T03:56:00;100847.19;;;10.16;100.00
8641;BME280;4358;42.100;25.222;2022-12-18T03:58:31;100856.69;;;10.20;100.00
8641;BME280;4358;42.100;25.222;2022-12-18T04:01:02;100867.00;;;10.27;100.00
8641;BME280;4358;42.100;25.222;2022-12-18T04:03:31;100867.00;;;10.27;100.00
8641;BME280;4358;42.100;25.222;2022-12-18T04:05:59;100870.44;;;10.29;100.00
8641;BME280;4358;42.100;25.222;2022-12-18T04:08:27;100872.19;;;10.30;100.00
8641;BME280;4358;42.100;25.222;2022-12-18T04:10:55;100869.34;;;10.33;100.00
8641;BME280;4358;42.100;25.222;2022-12-18T04:13:23;100873.72;;;10.34;100.00
8641;BME280;4358;42.100;25.222;2022-12-18T04:15:51;100877.94;;;10.38;100.00
8641;BME280;4358;42.100;25.222;2022-12-18T04:18:18;100879.66;;;10.39;100.00
8641;BME280;4358;42.100;25.222;2022-12-18T04:20:45;100884.16;;;10.37;100.00
8641;BME280;4358;42.100;25.222;2022-12-18T04:23:12;100888.84;;;10.32;100.00
8641;BME280;4358;42.100;25.222;2022-12-18T04:25:39;100880.91;;;10.32;100.00
8641;BME280;4358;42.100;25.222;2022-12-18T04:28:06;100887.63;;;10.39;100.00
8641;BME280;4358;42.100;25.222;2022-12-18T04:30:33;100887.44;;;10.42;100.00
8641;BME280;4358;42.100;25.222;2022-12-18T04:33:01;100892.94;;;10.39;100.00
8641;BME280;4358;42.100;25.222;2022-12-18T04:35:28;100890.28;;;10.39;100.00
8641;BME280;4358;42.100;25.222;2022-12-18T04:37:55;100891.06;;;10.41;100.00
8641;BME280;4358;42.100;25.222;2022-12-18T04:40:22;100883.19;;;10.39;100.00
8641;BME280;4358;42.100;25.222;2022-12-18T04:42:49;100898.06;;;10.42;100.00
8641;BME280;4358;42.100;25.222;2022-12-18T04:45:16;100896.84;;;10.49;100.00
8641;BME280;4358;42.100;25.222;2022-12-18T04:47:42;100904.78;;;10.49;100.00
8641;BME280;4358;42.100;25.222;2022-12-18T04:50:11;100910.09;;;10.49;100.00
8641;BME280;4358;42.100;25.222;2022-12-18T04:52:38;100900.59;;;10.45;100.00
8641;BME280;4358;42.100;25.222;2022-12-18T04:55:05;100915.59;;;10.46;100.00
8641;BME280;4358;42.100;25.222;2022-12-18T04:57:32;100915.72;;;10.43;100.00
8641;BME280;4358;42.100;25.222;2022-12-18T04:59:59;100923.69;;;10.43;100.00
8641;BME280;4358;42.100;25.222;2022-12-18T05:02:26;100912.94;;;10.46;100.00
8641;BME280;4358;42.100;25.222;2022-12-18T05:04:52;100919.00;;;10.48;100.00
8641;BME280;4358;42.100;25.222;2022-12-18T05:07:21;100925.78;;;10.53;100.00
8641;BME280;4358;42.100;25.222;2022-12-18T05:09:47;100926.03;;;10.49;100.00
8641;BME280;4358;42.100;25.222;2022-12-18T05:12:14;100932.25;;;10.48;100.00
8641;BME280;4358;42.100;25.222;2022-12-18T05:14:41;100933.06;;;10.50;100.00
8641;BME280;4358;42.100;25.222;2022-12-18T05:17:08;100938.75;;;10.42;100.00
8641;BME280;4358;42.100;25.222;2022-12-18T05:19:35;100943.97;;;10.44;100.00
8641;BME280;4358;42.100;25.222;2022-12-18T05:22:01;100942.13;;;10.46;100.00
8641;BME280;4358;42.100;25.222;2022-12-18T05:24:30;100948.34;;;10.45;100.00
8641;BME280;4358;42.100;25.222;2022-12-18T05:26:56;100959.75;;;10.47;100.00
8641;BME280;4358;42.100;25.222;2022-12-18T05:29:23;100961.41;;;10.49;100.00
8641;BME280;4358;42.100;25.222;2022-12-18T05:31:50;100968.38;;;10.52;100.00
8641;BME280;4358;42.100;25.222;2022-12-18T05:34:17;100966.47;;;10.54;100.00
8641;BME280;4358;42.100;25.222;2022-12-18T05:36:44;100966.34;;;10.57;100.00
8641;BME280;4358;42.100;25.222;2022-12-18T05:39:11;100974.44;;;10.54;100.00
8641;BME280;4358;42.100;25.222;2022-12-18T05:41:39;100979.63;;;10.38;100.00
8641;BME280;4358;42.100;25.222;2022-12-18T05:44:06;100984.72;;;10.43;100.00
8641;BME280;4358;42.100;25.222;2022-12-18T05:46:33;100986.59;;;10.41;100.00
8641;BME280;4358;42.100;25.222;2022-12-18T05:49:00;100986.91;;;10.35;100.00
8641;BME280;4358;42.100;25.222;2022-12-18T05:51:27;100993.31;;;10.31;100.00
8641;BME280;4358;42.100;25.222;2022-12-18T05:53:54;100992.22;;;10.35;100.00
8641;BME280;4358;42.100;25.222;2022-12-18T05:56:22;100998.91;;;10.42;100.00
8641;BME280;4358;42.100;25.222;2022-12-18T05:58:53;100997.22;;;10.41;100.00
8641;BME280;4358;42.100;25.222;2022-12-18T06:01:21;101002.38;;;10.44;100.00
8641;BME280;4358;42.100;25.222;2022-12-18T06:03:48;101008.91;;;10.37;100.00
8641;BME280;4358;42.100;25.222;2022-12-18T06:06:16;101008.06;;;10.36;100.00
8641;BME280;4358;42.100;25.222;2022-12-18T06:08:44;101012.63;;;10.33;100.00
8641;BME280;4358;42.100;25.222;2022-12-18T06:11:11;101011.06;;;10.29;100.00
8641;BME280;4358;42.100;25.222;2022-12-18T06:13:38;101027.78;;;10.31;100.00
8641;BME280;4358;42.100;25.222;2022-12-18T06:16:07;101025.03;;;10.32;100.00
8641;BME280;4358;42.100;25.222;2022-12-18T06:18:34;101032.38;;;10.27;100.00
8641;BME280;4358;42.100;25.222;2022-12-18T06:21:01;101042.56;;;10.17;100.00
8641;BME280;4358;42.100;25.222;2022-12-18T06:23:28;101039.03;;;10.17;100.00
8641;BME280;4358;42.100;25.222;2022-12-18T06:25:55;101040.38;;;10.07;100.00
8641;BME280;4358;42.100;25.222;2022-12-18T06:28:22;101052.72;;;10.08;100.00
8641;BME280;4358;42.100;25.222;2022-12-18T06:30:49;101060.03;;;10.03;100.00
8641;BME280;4358;42.100;25.222;2022-12-18T06:33:17;101062.63;;;10.04;100.00
8641;BME280;4358;42.100;25.222;2022-12-18T06:35:44;101066.19;;;10.03;100.00
8641;BME280;4358;42.100;25.222;2022-12-18T06:38:11;101068.84;;;10.03;100.00
8641;BME280;4358;42.100;25.222;2022-12-18T06:40:38;101072.44;;;10.02;100.00
8641;BME280;4358;42.100;25.222;2022-12-18T06:43:05;101075.41;;;9.95;100.00
8641;BME280;4358;42.100;25.222;2022-12-18T06:45:33;101081.59;;;9.95;100.00
8641;BME280;4358;42.100;25.222;2022-12-18T06:48:00;101083.25;;;9.98;100.00
8641;BME280;4358;42.100;25.222;2022-12-18T06:50:28;101092.84;;;10.00;100.00
8641;BME280;4358;42.100;25.222;2022-12-18T06:52:55;101103.34;;;10.03;100.00
8641;BME280;4358;42.100;25.222;2022-12-18T06:55:22;101103.34;;;10.03;100.00
8641;BME280;4358;42.100;25.222;2022-12-18T06:57:49;101113.50;;;10.12;100.00
8641;BME280;4358;42.100;25.222;2022-12-18T07:00:16;101111.19;;;10.05;100.00
8641;BME280;4358;42.100;25.222;2022-12-18T07:02:43;101117.47;;;10.04;100.00
8641;BME280;4358;42.100;25.222;2022-12-18T07:05:10;101118.59;;;9.98;100.00
8641;BME280;4358;42.100;25.222;2022-12-18T07:07:38;101129.03;;;10.01;100.00
8641;BME280;4358;42.100;25.222;2022-12-18T07:10:06;101138.28;;;9.93;100.00
8641;BME280;4358;42.100;25.222;2022-12-18T07:12:33;101139.72;;;10.00;100.00
8641;BME280;4358;42.100;25.222;2022-12-18T07:14:59;101128.13;;;10.02;100.00
8641;BME280;4358;42.100;25.222;2022-12-18T07:17:26;101137.59;;;10.08;100.00
8641;BME280;4358;42.100;25.222;2022-12-18T07:19:53;101138.19;;;10.14;100.00
8641;BME280;4358;42.100;25.222;2022-12-18T07:22:20;101143.78;;;10.08;100.00
8641;BME280;4358;42.100;25.222;2022-12-18T07:24:48;101141.13;;;10.08;100.00
8641;BME280;4358;42.100;25.222;2022-12-18T07:27:15;101145.34;;;10.12;100.00
8641;BME280;4358;42.100;25.222;2022-12-18T07:29:42;101143.44;;;10.16;100.00
8641;BME280;4358;42.100;25.222;2022-12-18T07:32:09;101156.63;;;10.17;100.00
8641;BME280;4358;42.100;25.222;2022-12-18T07:34:36;101164.19;;;10.27;100.00
8641;BME280;4358;42.100;25.222;2022-12-18T07:37:03;101169.94;;;10.36;100.00
8641;BME280;4358;42.100;25.222;2022-12-18T07:39:30;101172.38;;;10.41;100.00
8641;BME280;4358;42.100;25.222;2022-12-18T07:41:58;101168.38;;;10.51;100.00
8641;BME280;4358;42.100;25.222;2022-12-18T07:44:42;101174.16;;;10.59;100.00
8641;BME280;4358;42.100;25.222;2022-12-18T07:47:09;101182.78;;;10.64;100.00
8641;BME280;4358;42.100;25.222;2022-12-18T07:49:36;101183.50;;;10.68;100.00
8641;BME280;4358;42.100;25.222;2022-12-18T07:52:03;101185.88;;;10.55;100.00
8641;BME280;4358;42.100;25.222;2022-12-18T07:54:30;101188.47;;;10.56;100.00
8641;BME280;4358;42.100;25.222;2022-12-18T07:56:58;101195.91;;;10.48;100.00
8641;BME280;4358;42.100;25.222;2022-12-18T07:59:26;101196.78;;;10.49;100.00
8641;BME280;4358;42.100;25.222;2022-12-18T08:01:52;101199.56;;;10.46;100.00
8641;BME280;4358;42.100;25.222;2022-12-18T08:04:19;101197.19;;;10.40;100.00
8641;BME280;4358;42.100;25.222;2022-12-18T08:06:46;101204.34;;;10.38;100.00
8641;BME280;4358;42.100;25.222;2022-12-18T08:09:14;101201.06;;;10.33;100.00
8641;BME280;4358;42.100;25.222;2022-12-18T08:11:40;101208.09;;;10.34;100.00
8641;BME280;4358;42.100;25.222;2022-12-18T08:14:09;101214.84;;;10.41;100.00
8641;BME280;4358;42.100;25.222;2022-12-18T08:16:36;101210.31;;;10.43;100.00
8641;BME280;4358;42.100;25.222;2022-12-18T08:19:03;101216.97;;;10.33;100.00
8641;BME280;4358;42.100;25.222;2022-12-18T08:21:31;101217.13;;;10.30;100.00
8641;BME280;4358;42.100;25.222;2022-12-18T08:24:00;101227.00;;;10.26;100.00
8641;BME280;4358;42.100;25.222;2022-12-18T08:26:29;101225.16;;;10.28;100.00
8641;BME280;4358;42.100;25.222;2022-12-18T08:28:58;101238.47;;;10.27;100.00
8641;BME280;4358;42.100;25.222;2022-12-18T08:31:28;101228.28;;;10.17;100.00
8641;BME280;4358;42.100;25.222;2022-12-18T08:33:56;101228.50;;;10.11;100.00
8641;BME280;4358;42.100;25.222;2022-12-18T08:36:23;101237.38;;;10.10;100.00
8641;BME280;4358;42.100;25.222;2022-12-18T08:38:50;101228.06;;;10.02;100.00
8641;BME280;4358;42.100;25.222;2022-12-18T08:41:18;101233.41;;;10.00;100.00
8641;BME280;4358;42.100;25.222;2022-12-18T08:43:45;101223.88;;;9.96;100.00
8641;BME280;4358;42.100;25.222;2022-12-18T08:46:34;101217.84;;;9.93;100.00
8641;BME280;4358;42.100;25.222;2022-12-18T08:49:02;101218.84;;;9.90;100.00
8641;BME280;4358;42.100;25.222;2022-12-18T08:51:30;101226.88;;;9.89;100.00
8641;BME280;4358;42.100;25.222;2022-12-18T08:53:56;101213.63;;;9.89;100.00
8641;BME280;4358;42.100;25.222;2022-12-18T08:56:23;101216.53;;;9.83;100.00
8641;BME280;4358;42.100;25.222;2022-12-18T08:58:51;101211.44;;;9.78;100.00
8641;BME280;4358;42.100;25.222;2022-12-18T09:01:19;101216.06;;;9.73;100.00
8641;BME280;4358;42.100;25.222;2022-12-18T09:03:48;101217.03;;;9.70;100.00
8641;BME280;4358;42.100;25.222;2022-12-18T09:06:16;101208.16;;;9.71;100.00
8641;BME280;4358;42.100;25.222;2022-12-18T09:08:43;101212.00;;;9.64;100.00
8641;BME280;4358;42.100;25.222;2022-12-18T09:11:13;101217.44;;;9.61;100.00
8641;BME280;4358;42.100;25.222;2022-12-18T09:13:40;101198.28;;;9.55;100.00
8641;BME280;4358;42.100;25.222;2022-12-18T09:16:07;101218.31;;;9.62;100.00
8641;BME280;4358;42.100;25.222;2022-12-18T09:18:35;101218.06;;;9.68;100.00
8641;BME280;4358;42.100;25.222;2022-12-18T09:21:09;101216.44;;;9.64;100.00
8641;BME280;4358;42.100;25.222;2022-12-18T09:23:36;101218.31;;;9.62;100.00
8641;BME280;4358;42.100;25.222;2022-12-18T09:26:03;101214.72;;;9.63;100.00
8641;BME280;4358;42.100;25.222;2022-12-18T09:28:31;101213.06;;;9.60;100.00
8641;BME280;4358;42.100;25.222;2022-12-18T09:30:57;101212.75;;;9.68;100.00
8641;BME280;4358;42.100;25.222;2022-12-18T09:33:24;101213.66;;;9.67;100.00
8641;BME280;4358;42.100;25.222;2022-12-18T09:35:51;101225.72;;;9.74;100.00
8641;BME280;4358;42.100;25.222;2022-12-18T09:38:20;101220.31;;;9.77;100.00
8641;BME280;4358;42.100;25.222;2022-12-18T09:40:52;101233.41;;;9.80;100.00
8641;BME280;4358;42.100;25.222;2022-12-18T09:43:24;101230.56;;;9.85;100.00
8641;BME280;4358;42.100;25.222;2022-12-18T09:45:57;101231.31;;;9.88;100.00
8641;BME280;4358;42.100;25.222;2022-12-18T09:48:27;101246.38;;;9.88;100.00
8641;BME280;4358;42.100;25.222;2022-12-18T09:51:00;101251.06;;;9.81;100.00
8641;BME280;4358;42.100;25.222;2022-12-18T09:53:33;101231.03;;;9.74;100.00
8641;BME280;4358;42.100;25.222;2022-12-18T09:56:04;101249.22;;;9.83;100.00
8641;BME280;4358;42.100;25.222;2022-12-18T09:58:34;101250.66;;;9.90;100.00
8641;BME280;4358;42.100;25.222;2022-12-18T10:01:10;101252.28;;;9.94;100.00
8641;BME280;4358;42.100;25.222;2022-12-18T10:03:37;101253.41;;;9.89;100.00
8641;BME280;4358;42.100;25.222;2022-12-18T10:06:07;101244.31;;;9.94;100.00
8641;BME280;4358;42.100;25.222;2022-12-18T10:08:44;101259.41;;;9.92;100.00
8641;BME280;4358;42.100;25.222;2022-12-18T10:11:34;101256.22;;;9.84;100.00
8641;BME280;4358;42.100;25.222;2022-12-18T10:14:09;101259.53;;;9.89;100.00
8641;BME280;4358;42.100;25.222;2022-12-18T10:16:45;101254.78;;;9.97;100.00
8641;BME280;4358;42.100;25.222;2022-12-18T10:19:29;101259.41;;;9.92;100.00
8641;BME280;4358;42.100;25.222;2022-12-18T10:22:03;101256.56;;;9.97;100.00
8641;BME280;4358;42.100;25.222;2022-12-18T10:24:42;101255.59;;;9.99;100.00
8641;BME280;4358;42.100;25.222;2022-12-18T10:27:14;101254.94;;;9.94;100.00
8641;BME280;4358;42.100;25.222;2022-12-18T10:29:42;101252.59;;;9.87;100.00
8641;BME280;4358;42.100;25.222;2022-12-18T10:32:14;101263.50;;;9.79;100.00
8641;BME280;4358;42.100;25.222;2022-12-18T10:34:45;101268.13;;;9.74;100.00
8641;BME280;4358;42.100;25.222;2022-12-18T10:37:16;101251.19;;;9.78;100.00
8641;BME280;4358;42.100;25.222;2022-12-18T10:39:45;101263.13;;;9.88;100.00
8641;BME280;4358;42.100;25.222;2022-12-18T10:42:17;101265.22;;;9.80;100.00
8641;BME280;4358;42.100;25.222;2022-12-18T10:44:45;101274.78;;;9.84;100.00
8641;BME280;4358;42.100;25.222;2022-12-18T10:47:14;101272.94;;;9.86;100.00
8641;BME280;4358;42.100;25.222;2022-12-18T10:49:49;101280.13;;;10.04;100.00
8641;BME280;4358;42.100;25.222;2022-12-18T10:52:18;101283.16;;;10.15;100.00
8641;BME280;4358;42.100;25.222;2022-12-18T10:54:51;101284.53;;;10.26;100.00
8641;BME280;4358;42.100;25.222;2022-12-18T10:57:30;101287.91;;;10.29;100.00
8641;BME280;4358;42.100;25.222;2022-12-18T11:00:00;101280.88;;;10.28;100.00
8641;BME280;4358;42.100;25.222;2022-12-18T11:02:34;101284.53;;;10.26;100.00
8641;BME280;4358;42.100;25.222;2022-12-18T11:05:01;101297.72;;;10.27;100.00
8641;BME280;4358;42.100;25.222;2022-12-18T11:07:47;101280.81;;;10.30;100.00
8641;BME280;4358;42.100;25.222;2022-12-18T11:10:18;101286.97;;;10.30;100.00
8641;BME280;4358;42.100;25.222;2022-12-18T11:12:45;101289.44;;;10.35;100.00
8641;BME280;4358;42.100;25.222;2022-12-18T11:15:16;101282.84;;;10.43;100.00
8641;BME280;4358;42.100;25.222;2022-12-18T11:17:47;101292.47;;;10.46;100.00
8641;BME280;4358;42.100;25.222;2022-12-18T11:20:27;101297.38;;;10.55;100.00
8641;BME280;4358;42.100;25.222;2022-12-18T11:22:58;101293.78;;;10.56;100.00
8641;BME280;4358;42.100;25.222;2022-12-18T11:25:28;101290.84;;;10.62;100.00
8641;BME280;4358;42.100;25.222;2022-12-18T11:27:56;101283.94;;;10.58;100.00
8641;BME280;4358;42.100;25.222;2022-12-18T11:30:26;101298.25;;;10.74;100.00
8641;BME280;4358;42.100;25.222;2022-12-18T11:33:01;101294.66;;;10.75;100.00
8641;BME280;4358;42.100;25.222;2022-12-18T11:35:39;101299.75;;;10.80;100.00
8641;BME280;4358;42.100;25.222;2022-12-18T11:38:17;101292.66;;;10.80;100.00
8641;BME280;4358;42.100;25.222;2022-12-18T11:40:50;101291.63;;;10.64;100.00
8641;BME280;4358;42.100;25.222;2022-12-18T11:43:25;101293.78;;;10.56;100.00
8641;BME280;4358;42.100;25.222;2022-12-18T11:45:55;101298.94;;;10.59;100.00
8641;BME280;4358;42.100;25.222;2022-12-18T11:48:28;101294.44;;;10.61;100.00
8641;BME280;4358;42.100;25.222;2022-12-18T11:50:59;101295.38;;;10.60;100.00
8641;BME280;4358;42.100;25.222;2022-12-18T11:53:27;101298.09;;;10.58;100.00
8641;BME280;4358;42.100;25.222;2022-12-18T11:56:03;101295.31;;;10.61;100.00
8641;BME280;4358;42.100;25.222;2022-12-18T11:58:43;101307.56;;;10.64;100.00
8641;BME280;4358;42.100;25.222;2022-12-18T12:01:27;101299.31;;;10.70;100.00
8641;BME280;4358;42.100;25.222;2022-12-18T12:07:10;101314.34;;;10.71;100.00
8641;BME280;4358;42.100;25.222;2022-12-18T12:09:47;101310.59;;;10.75;100.00
8641;BME280;4358;42.100;25.222;2022-12-18T12:12:30;101317.50;;;10.79;100.00
8641;BME280;4358;42.100;25.222;2022-12-18T12:15:19;101317.69;;;10.75;100.00
8641;BME280;4358;42.100;25.222;2022-12-18T12:17:53;101323.72;;;10.78;100.00
8641;BME280;4358;42.100;25.222;2022-12-18T12:20:27;101313.78;;;10.83;100.00
8641;BME280;4358;42.100;25.222;2022-12-18T12:23:02;101320.78;;;10.84;100.00
8641;BME280;4358;42.100;25.222;2022-12-18T12:25:36;101315.06;;;10.75;100.00
8641;BME280;4358;42.100;25.222;2022-12-18T12:28:17;101314.19;;;10.74;100.00
8641;BME280;4358;42.100;25.222;2022-12-18T12:30:54;101311.63;;;10.73;100.00
8641;BME280;4358;42.100;25.222;2022-12-18T12:33:35;101322.41;;;10.68;100.00
8641;BME280;4358;42.100;25.222;2022-12-18T12:36:08;101318.41;;;10.59;100.00
8641;BME280;4358;42.100;25.222;2022-12-18T12:38:40;101322.72;;;10.62;100.00
8641;BME280;4358;42.100;25.222;2022-12-18T12:41:12;101315.13;;;10.53;100.00
8641;BME280;4358;42.100;25.222;2022-12-18T12:43:57;101321.31;;;10.53;100.00
8641;BME280;4358;42.100;25.222;2022-12-18T12:46:26;101322.19;;;10.54;100.00
8641;BME280;4358;42.100;25.222;2022-12-18T12:48:55;101334.69;;;10.52;100.00
8641;BME280;4358;42.100;25.222;2022-12-18T12:51:26;101335.59;;;10.51;100.00
8641;BME280;4358;42.100;25.222;2022-12-18T12:53:56;101343.41;;;10.54;100.00
8641;BME280;4358;42.100;25.222;2022-12-18T12:56:32;101348.13;;;10.47;100.00
8641;BME280;4358;42.100;25.222;2022-12-18T12:59:13;101352.88;;;10.41;100.00
8641;BME280;4358;42.100;25.222;2022-12-18T13:01:49;101359.81;;;10.43;100.00
8641;BME280;4358;42.100;25.222;2022-12-18T13:04:25;101363.19;;;10.47;100.00
8641;BME280;4358;42.100;25.222;2022-12-18T13:07:00;101376.59;;;10.44;100.00
8641;BME280;4358;42.100;25.222;2022-12-18T13:09:30;101380.38;;;10.38;100.00
8641;BME280;4358;42.100;25.222;2022-12-18T13:12:02;101385.09;;;10.32;100.00
8641;BME280;4358;42.100;25.222;2022-12-18T13:14:48;101385.28;;;10.27;100.00